createdAt,value
2018-09-11T00:01:47.882Z,100001.50
2018-09-11T00:07:52.569Z,99996.25
2018-09-11T00:13:57.507Z,100000.23
2018-09-11T00:20:02.229Z,100004.83
2018-09-11T00:26:07.041Z,99993.75
2018-09-11T00:32:12.423Z,99994.67
2018-09-11T00:38:17.320Z,99993.05
2018-09-11T00:44:22.093Z,99990.58
2018-09-11T00:50:27.313Z,99983.19
2018-09-11T00:56:32.089Z,99987.33
2018-09-11T01:02:36.874Z,99990.60
2018-09-11T01:08:41.896Z,100002.55
2018-09-11T01:14:47.237Z,100001.35
2018-09-11T01:20:52.283Z,99983.30
2018-09-11T01:26:57.032Z,99990.36
2018-09-11T01:33:01.863Z,99990.69
2018-09-11T01:39:10.907Z,99986.00
2018-09-11T01:45:15.994Z,99983.30
2018-09-11T01:51:20.663Z,99968.68
2018-09-11T01:57:25.435Z,99954.59
2018-09-11T02:03:30.333Z,99954.23
2018-09-11T02:09:35.118Z,99950.91
2018-09-11T02:15:40.083Z,99963.25
2018-09-11T02:21:45.218Z,99964.32
2018-09-11T02:27:51.449Z,99961.99
2018-09-11T02:33:56.331Z,99956.12
2018-09-11T02:40:01.226Z,99965.08
2018-09-11T02:46:06.105Z,99958.81
2018-09-11T02:52:11.168Z,99962.37
2018-09-11T02:58:16.196Z,99966.88
2018-09-11T03:04:20.867Z,99968.91
2018-09-11T03:10:25.541Z,99976.81
2018-09-11T03:16:30.528Z,99969.06
2018-09-11T03:22:35.299Z,99965.44
2018-09-11T03:28:40.469Z,99972.16
2018-09-11T03:34:45.301Z,99980.97
2018-09-11T03:40:50.110Z,99981.78
2018-09-11T03:46:54.860Z,99981.48
2018-09-11T03:52:59.646Z,99981.10
2018-09-11T03:59:04.386Z,99980.05
2018-09-11T04:05:09.904Z,99980.95
2018-09-11T04:11:14.874Z,99978.16
2018-09-11T04:17:19.723Z,99977.58
2018-09-11T04:23:24.616Z,99979.45
2018-09-11T04:29:29.322Z,99979.60
2018-09-11T04:35:34.071Z,99981.19
2018-09-11T04:41:39.082Z,99989.50
2018-09-11T04:47:43.988Z,99993.06
2018-09-11T04:53:48.700Z,99988.47
2018-09-11T04:59:53.545Z,99991.27
2018-09-11T05:05:58.500Z,99978.78
2018-09-11T05:12:03.281Z,99975.25
2018-09-11T05:18:08.108Z,99987.59
2018-09-11T05:24:13.488Z,99986.51
2018-09-11T05:30:18.334Z,99987.09
2018-09-11T05:36:23.172Z,99988.16
2018-09-11T05:42:28.607Z,99978.77
2018-09-11T05:48:33.419Z,99982.93
2018-09-11T05:54:38.788Z,99987.72
2018-09-11T06:00:43.753Z,99985.55
2018-09-11T06:06:48.435Z,99977.05
2018-09-11T06:12:53.168Z,99965.91
2018-09-11T06:18:58.045Z,99956.86
2018-09-11T06:25:02.953Z,99951.83
2018-09-11T06:31:08.131Z,99963.28
2018-09-11T06:37:13.068Z,99954.23
2018-09-11T06:43:17.967Z,99967.76
2018-09-11T06:49:22.719Z,99966.02
2018-09-11T06:55:27.437Z,99963.24
2018-09-11T07:01:32.158Z,99970.52
2018-09-11T07:07:36.954Z,99967.60
2018-09-11T07:13:41.872Z,99960.11
2018-09-11T07:19:46.914Z,99962.08
2018-09-11T07:25:51.675Z,99962.20
2018-09-11T07:31:56.483Z,99972.00
2018-09-11T07:38:01.216Z,99970.75
2018-09-11T07:44:06.268Z,99980.23
2018-09-11T07:50:12.627Z,99991.34
2018-09-11T07:56:17.380Z,99991.31
2018-09-11T08:02:22.200Z,99986.87
2018-09-11T08:08:27.159Z,99984.68
2018-09-11T08:14:31.853Z,99982.14
2018-09-11T08:20:36.615Z,99977.90
2018-09-11T08:26:41.346Z,99983.27
2018-09-11T08:32:46.253Z,99969.04
2018-09-11T08:38:51.103Z,99963.08
2018-09-11T08:44:55.792Z,99954.77
2018-09-11T08:51:00.502Z,99953.84
2018-09-11T08:57:05.210Z,99968.09
2018-09-11T09:03:09.997Z,99971.53
2018-09-11T09:09:14.769Z,99974.62
2018-09-11T09:15:19.548Z,99968.59
2018-09-11T09:21:24.298Z,99959.23
2018-09-11T09:27:29.461Z,99950.98
2018-09-11T09:33:34.190Z,99947.73
2018-09-11T09:39:39.066Z,99954.08
2018-09-11T09:45:44.369Z,99937.95
2018-09-11T09:51:49.063Z,99942.75
2018-09-11T09:57:53.868Z,99933.22
2018-09-11T10:03:58.678Z,99921.86
2018-09-11T10:10:03.654Z,99922.59
2018-09-11T10:16:08.358Z,99921.41
2018-09-11T10:22:13.275Z,99923.70
2018-09-11T10:28:18.172Z,99923.47
2018-09-11T10:34:23.397Z,99928.64
2018-09-11T10:40:28.217Z,99923.03
2018-09-11T10:46:33.333Z,99920.82
2018-09-11T10:52:38.274Z,99923.08
2018-09-11T10:58:43.175Z,99916.55
2018-09-11T11:04:48.536Z,99915.45
2018-09-11T11:10:53.458Z,99911.41
2018-09-11T11:16:58.433Z,99905.12
2018-09-11T11:23:03.207Z,99904.67
2018-09-11T11:29:08.475Z,99897.30
2018-09-11T11:35:13.379Z,99893.63
2018-09-11T11:41:18.699Z,99882.85
2018-09-11T11:47:23.451Z,99880.34
2018-09-11T11:53:28.322Z,99874.00
2018-09-11T11:59:33.014Z,99875.70
2018-09-11T12:05:37.909Z,99872.73
2018-09-11T12:11:43.624Z,99870.77
2018-09-11T12:17:48.637Z,99863.41
2018-09-11T12:23:53.383Z,99862.00
2018-09-11T12:29:58.500Z,99850.22
2018-09-11T12:36:03.593Z,99844.88
2018-09-11T12:42:08.488Z,99848.03
2018-09-11T12:48:13.973Z,99840.39
2018-09-11T12:54:18.765Z,99852.24
2018-09-11T13:00:23.882Z,99852.90
2018-09-11T13:06:28.655Z,99839.94
2018-09-11T13:12:33.658Z,99846.41
2018-09-11T13:18:39.550Z,99845.30
2018-09-11T13:24:44.916Z,99840.20
2018-09-11T13:30:49.725Z,99838.25
2018-09-11T13:36:54.576Z,99835.92
2018-09-11T13:42:59.431Z,99840.03
2018-09-11T13:49:04.291Z,99824.70
2018-09-11T13:55:09.215Z,99821.83
2018-09-11T14:01:13.966Z,99812.73
2018-09-11T14:07:19.127Z,99813.03
2018-09-11T14:13:23.931Z,99811.38
2018-09-11T14:19:28.711Z,99805.38
2018-09-11T14:25:33.515Z,99790.24
2018-09-11T14:31:38.345Z,99798.52
2018-09-11T14:37:43.590Z,99803.72
2018-09-11T14:43:48.676Z,99802.91
2018-09-11T14:49:56.297Z,99807.30
2018-09-11T14:56:01.288Z,99790.30
2018-09-11T15:02:06.155Z,99804.23
2018-09-11T15:08:11.039Z,99799.12
2018-09-11T15:14:15.864Z,99793.71
2018-09-11T15:20:20.792Z,99795.42
2018-09-11T15:26:25.547Z,99800.95
2018-09-11T15:32:30.331Z,99793.08
2018-09-11T15:38:35.120Z,99787.23
2018-09-11T15:44:39.941Z,99793.13
2018-09-11T15:50:44.814Z,99789.73
2018-09-11T15:56:49.794Z,99791.33
2018-09-11T16:02:54.541Z,99782.87
2018-09-11T16:08:59.442Z,99781.24
2018-09-11T16:15:04.469Z,99777.20
2018-09-11T16:21:09.369Z,99771.96
2018-09-11T16:27:14.805Z,99774.70
2018-09-11T16:33:19.896Z,99777.17
2018-09-11T16:39:24.844Z,99775.94
2018-09-11T16:45:29.553Z,99765.73
2018-09-11T16:51:34.245Z,99761.19
2018-09-11T16:57:39.080Z,99765.11
2018-09-11T17:03:43.993Z,99761.19
2018-09-11T17:09:48.705Z,99761.71
2018-09-11T17:15:53.718Z,99765.63
2018-09-11T17:21:58.452Z,99760.27
2018-09-11T17:28:03.306Z,99752.00
2018-09-11T17:34:08.474Z,99761.78
2018-09-11T17:40:13.819Z,99766.45
2018-09-11T17:46:18.599Z,99772.41
2018-09-11T17:52:23.732Z,99772.27
2018-09-11T17:58:28.697Z,99769.47
2018-09-11T18:04:33.597Z,99786.67
2018-09-11T18:10:38.406Z,99794.44
2018-09-11T18:16:43.502Z,99795.31
2018-09-11T18:22:49.291Z,99810.13
2018-09-11T18:28:54.110Z,99810.66
2018-09-11T18:34:58.925Z,99830.35
2018-09-11T18:41:03.730Z,99832.78
2018-09-11T18:47:08.563Z,99833.61
2018-09-11T18:53:14.424Z,99844.02
2018-09-11T18:59:19.555Z,99841.58
2018-09-11T19:05:25.311Z,99844.34
2018-09-11T19:11:30.078Z,99856.94
2018-09-11T19:17:34.882Z,99856.45
2018-09-11T19:23:39.796Z,99855.32
2018-09-11T19:29:45.132Z,99859.96
2018-09-11T19:35:49.901Z,99868.19
2018-09-11T19:41:54.788Z,99867.33
2018-09-11T19:47:59.577Z,99864.31
2018-09-11T19:54:04.482Z,99872.56
2018-09-11T20:00:09.626Z,99868.36
2018-09-11T20:06:15.332Z,99872.46
2018-09-11T20:12:20.619Z,99881.14
2018-09-11T20:18:25.591Z,99877.48
2018-09-11T20:24:30.649Z,99871.83
2018-09-11T20:30:35.528Z,99865.13
2018-09-11T20:36:41.627Z,99875.03
2018-09-11T20:42:46.635Z,99868.86
2018-09-11T20:48:51.448Z,99866.70
2018-09-11T20:54:56.278Z,99877.91
2018-09-11T21:01:01.472Z,99871.81
2018-09-11T21:07:06.235Z,99870.17
2018-09-11T21:13:11.376Z,99864.83
2018-09-11T21:19:16.976Z,99863.62
2018-09-11T21:25:21.847Z,99866.16
2018-09-11T21:31:27.067Z,99862.94
2018-09-11T21:37:31.959Z,99857.32
2018-09-11T21:43:36.916Z,99857.86
2018-09-11T21:49:41.945Z,99855.86
2018-09-11T21:55:46.683Z,99857.29
2018-09-11T22:01:52.874Z,99855.87
2018-09-11T22:07:57.677Z,99857.70
2018-09-11T22:14:02.534Z,99850.77
2018-09-11T22:20:08.007Z,99849.96
2018-09-11T22:26:15.387Z,99846.68
2018-09-11T22:32:20.577Z,99848.30
2018-09-11T22:38:25.486Z,99847.41
2018-09-11T22:44:30.323Z,99845.63
2018-09-11T22:50:35.366Z,99850.53
2018-09-11T22:56:41.421Z,99852.27
2018-09-11T23:02:46.528Z,99854.27
2018-09-11T23:08:51.368Z,99851.05
2018-09-11T23:14:56.323Z,99842.44
2018-09-11T23:21:01.156Z,99842.42
2018-09-11T23:27:06.034Z,99849.28
2018-09-11T23:33:11.071Z,99841.34
2018-09-11T23:39:16.186Z,99848.23
2018-09-11T23:45:20.970Z,99847.73
2018-09-11T23:51:26.105Z,99844.22
2018-09-11T23:57:30.981Z,99845.12
